sensor_id;sensor_type;location;lat;lon;timestamp;P1;durP1;ratioP1;P2;durP2;ratioP2
20038;SDS011;21737;42.868;25.320;2023-07-16T00:01:40;10.10;;;7.43;;
20038;SDS011;21737;42.868;25.320;2023-07-16T00:04:42;10.40;;;6.53;;
20038;SDS011;21737;42.868;25.320;2023-07-16T00:07:45;9.23;;;6.73;;
20038;SDS011;21737;42.868;25.320;2023-07-16T00:10:48;11.80;;;6.90;;
20038;SDS011;21737;42.868;25.320;2023-07-16T00:13:58;9.80;;;6.67;;
20038;SDS011;21737;42.868;25.320;2023-07-16T00:17:04;8.33;;;6.33;;
20038;SDS011;21737;42.868;25.320;2023-07-16T00:20:12;10.13;;;6.57;;
20038;SDS011;21737;42.868;25.320;2023-07-16T00:23:15;8.27;;;6.73;;
20038;SDS011;21737;42.868;25.320;2023-07-16T00:26:31;11.13;;;7.10;;
20038;SDS011;21737;42.868;25.320;2023-07-16T00:29:34;9.70;;;6.27;;
20038;SDS011;21737;42.868;25.320;2023-07-16T00:32:38;9.63;;;6.47;;
20038;SDS011;21737;42.868;25.320;2023-07-16T00:35:49;8.50;;;6.83;;
20038;SDS011;21737;42.868;25.320;2023-07-16T00:39:00;10.73;;;6.57;;
20038;SDS011;21737;42.868;25.320;2023-07-16T00:42:04;9.27;;;7.00;;
20038;SDS011;21737;42.868;25.320;2023-07-16T00:45:08;7.30;;;6.40;;
20038;SDS011;21737;42.868;25.320;2023-07-16T00:48:11;9.73;;;6.70;;
20038;SDS011;21737;42.868;25.320;2023-07-16T00:51:14;7.87;;;6.10;;
20038;SDS011;21737;42.868;25.320;2023-07-16T00:54:18;11.03;;;6.33;;
20038;SDS011;21737;42.868;25.320;2023-07-16T00:57:22;11.73;;;6.67;;
20038;SDS011;21737;42.868;25.320;2023-07-16T01:00:24;9.23;;;6.50;;
20038;SDS011;21737;42.868;25.320;2023-07-16T01:03:29;8.10;;;6.77;;
20038;SDS011;21737;42.868;25.320;2023-07-16T01:12:40;12.80;;;6.70;;
20038;SDS011;21737;42.868;25.320;2023-07-16T01:19:05;8.10;;;6.40;;
20038;SDS011;21737;42.868;25.320;2023-07-16T01:25:36;8.10;;;6.70;;
20038;SDS011;21737;42.868;25.320;2023-07-16T01:32:05;10.63;;;6.87;;
20038;SDS011;21737;42.868;25.320;2023-07-16T01:35:16;7.60;;;6.30;;
20038;SDS011;21737;42.868;25.320;2023-07-16T01:38:19;8.43;;;6.40;;
20038;SDS011;21737;42.868;25.320;2023-07-16T01:41:23;9.17;;;6.43;;
20038;SDS011;21737;42.868;25.320;2023-07-16T01:44:29;8.67;;;6.83;;
20038;SDS011;21737;42.868;25.320;2023-07-16T01:47:35;8.50;;;7.20;;
20038;SDS011;21737;42.868;25.320;2023-07-16T01:50:46;9.30;;;6.73;;
20038;SDS011;21737;42.868;25.320;2023-07-16T01:53:48;10.47;;;6.43;;
20038;SDS011;21737;42.868;25.320;2023-07-16T01:56:51;9.83;;;6.70;;
20038;SDS011;21737;42.868;25.320;2023-07-16T01:59:54;8.30;;;6.70;;
20038;SDS011;21737;42.868;25.320;2023-07-16T02:02:56;9.50;;;6.90;;
20038;SDS011;21737;42.868;25.320;2023-07-16T02:05:59;12.47;;;7.40;;
20038;SDS011;21737;42.868;25.320;2023-07-16T02:16:13;12.77;;;7.33;;
20038;SDS011;21737;42.868;25.320;2023-07-16T02:19:24;9.63;;;7.40;;
20038;SDS011;21737;42.868;25.320;2023-07-16T02:22:30;8.03;;;7.23;;
20038;SDS011;21737;42.868;25.320;2023-07-16T02:25:35;8.73;;;7.37;;
20038;SDS011;21737;42.868;25.320;2023-07-16T02:28:41;11.17;;;7.47;;
20038;SDS011;21737;42.868;25.320;2023-07-16T02:35:12;12.23;;;7.43;;
20038;SDS011;21737;42.868;25.320;2023-07-16T02:38:17;12.90;;;7.27;;
20038;SDS011;21737;42.868;25.320;2023-07-16T02:41:20;10.70;;;7.47;;
20038;SDS011;21737;42.868;25.320;2023-07-16T02:44:24;12.10;;;7.57;;
20038;SDS011;21737;42.868;25.320;2023-07-16T02:47:26;9.10;;;7.47;;
20038;SDS011;21737;42.868;25.320;2023-07-16T02:50:37;12.77;;;8.07;;
20038;SDS011;21737;42.868;25.320;2023-07-16T02:53:39;9.40;;;7.27;;
20038;SDS011;21737;42.868;25.320;2023-07-16T02:56:42;11.00;;;7.73;;
20038;SDS011;21737;42.868;25.320;2023-07-16T03:03:21;10.90;;;7.63;;
20038;SDS011;21737;42.868;25.320;2023-07-16T03:06:25;9.43;;;7.60;;
20038;SDS011;21737;42.868;25.320;2023-07-16T03:09:28;9.47;;;7.43;;
20038;SDS011;21737;42.868;25.320;2023-07-16T03:12:31;10.90;;;7.47;;
20038;SDS011;21737;42.868;25.320;2023-07-16T03:15:33;8.03;;;7.23;;
20038;SDS011;21737;42.868;25.320;2023-07-16T03:18:37;8.77;;;7.87;;
20038;SDS011;21737;42.868;25.320;2023-07-16T03:21:39;8.93;;;8.03;;
20038;SDS011;21737;42.868;25.320;2023-07-16T03:24:41;10.13;;;8.27;;
20038;SDS011;21737;42.868;25.320;2023-07-16T03:27:43;11.13;;;7.73;;
20038;SDS011;21737;42.868;25.320;2023-07-16T03:30:49;9.10;;;7.47;;
20038;SDS011;21737;42.868;25.320;2023-07-16T03:33:57;9.17;;;7.97;;
20038;SDS011;21737;42.868;25.320;2023-07-16T03:37:04;10.53;;;8.03;;
20038;SDS011;21737;42.868;25.320;2023-07-16T03:40:16;9.63;;;7.67;;
20038;SDS011;21737;42.868;25.320;2023-07-16T03:43:23;10.93;;;7.53;;
20038;SDS011;21737;42.868;25.320;2023-07-16T03:46:30;11.50;;;7.53;;
20038;SDS011;21737;42.868;25.320;2023-07-16T03:49:41;12.57;;;7.90;;
20038;SDS011;21737;42.868;25.320;2023-07-16T03:52:43;9.87;;;7.63;;
20038;SDS011;21737;42.868;25.320;2023-07-16T03:55:53;11.83;;;7.50;;
20038;SDS011;21737;42.868;25.320;2023-07-16T04:02:24;8.80;;;7.90;;
20038;SDS011;21737;42.868;25.320;2023-07-16T04:05:27;10.10;;;8.20;;
20038;SDS011;21737;42.868;25.320;2023-07-16T04:15:25;9.60;;;7.83;;
20038;SDS011;21737;42.868;25.320;2023-07-16T04:18:35;9.13;;;7.50;;
20038;SDS011;21737;42.868;25.320;2023-07-16T04:21:37;8.80;;;7.87;;
20038;SDS011;21737;42.868;25.320;2023-07-16T04:24:40;8.67;;;7.10;;
20038;SDS011;21737;42.868;25.320;2023-07-16T04:27:42;10.10;;;7.47;;
20038;SDS011;21737;42.868;25.320;2023-07-16T04:30:46;11.00;;;7.70;;
20038;SDS011;21737;42.868;25.320;2023-07-16T04:37:15;10.17;;;7.70;;
20038;SDS011;21737;42.868;25.320;2023-07-16T04:40:19;8.63;;;7.40;;
20038;SDS011;21737;42.868;25.320;2023-07-16T04:43:22;8.27;;;7.33;;
20038;SDS011;21737;42.868;25.320;2023-07-16T04:46:25;13.67;;;7.90;;
20038;SDS011;21737;42.868;25.320;2023-07-16T04:49:27;9.00;;;7.63;;
20038;SDS011;21737;42.868;25.320;2023-07-16T04:52:29;9.50;;;7.70;;
20038;SDS011;21737;42.868;25.320;2023-07-16T04:55:35;11.77;;;7.83;;
20038;SDS011;21737;42.868;25.320;2023-07-16T04:58:37;10.53;;;7.23;;
20038;SDS011;21737;42.868;25.320;2023-07-16T05:01:40;10.67;;;7.53;;
20038;SDS011;21737;42.868;25.320;2023-07-16T05:04:42;16.47;;;8.83;;
20038;SDS011;21737;42.868;25.320;2023-07-16T05:07:51;10.77;;;7.60;;
20038;SDS011;21737;42.868;25.320;2023-07-16T05:10:54;15.20;;;9.80;;
20038;SDS011;21737;42.868;25.320;2023-07-16T05:13:59;9.37;;;7.90;;
20038;SDS011;21737;42.868;25.320;2023-07-16T05:17:02;9.97;;;8.07;;
20038;SDS011;21737;42.868;25.320;2023-07-16T05:27:20;10.83;;;7.50;;
20038;SDS011;21737;42.868;25.320;2023-07-16T05:33:28;8.07;;;7.23;;
20038;SDS011;21737;42.868;25.320;2023-07-16T05:36:31;7.63;;;6.83;;
20038;SDS011;21737;42.868;25.320;2023-07-16T05:39:34;8.63;;;7.10;;
20038;SDS011;21737;42.868;25.320;2023-07-16T05:42:37;7.93;;;6.83;;
20038;SDS011;21737;42.868;25.320;2023-07-16T05:45:39;10.77;;;6.60;;
20038;SDS011;21737;42.868;25.320;2023-07-16T05:48:43;8.23;;;6.80;;
20038;SDS011;21737;42.868;25.320;2023-07-16T05:51:47;11.90;;;7.10;;
20038;SDS011;21737;42.868;25.320;2023-07-16T05:54:51;8.15;;;5.68;;
20038;SDS011;21737;42.868;25.320;2023-07-16T05:57:53;6.32;;;5.30;;
20038;SDS011;21737;42.868;25.320;2023-07-16T06:01:00;8.68;;;5.60;;
20038;SDS011;21737;42.868;25.320;2023-07-16T06:04:04;11.25;;;5.63;;
20038;SDS011;21737;42.868;25.320;2023-07-16T06:07:14;7.82;;;5.20;;
20038;SDS011;21737;42.868;25.320;2023-07-16T06:10:22;6.13;;;5.20;;
20038;SDS011;21737;42.868;25.320;2023-07-16T06:13:28;6.40;;;5.30;;
20038;SDS011;21737;42.868;25.320;2023-07-16T06:19:37;6.00;;;5.40;;
20038;SDS011;21737;42.868;25.320;2023-07-16T06:22:39;7.88;;;5.95;;
20038;SDS011;21737;42.868;25.320;2023-07-16T06:29:15;16.58;;;7.75;;
20038;SDS011;21737;42.868;25.320;2023-07-16T06:32:18;15.10;;;7.70;;
20038;SDS011;21737;42.868;25.320;2023-07-16T06:35:21;11.77;;;6.22;;
20038;SDS011;21737;42.868;25.320;2023-07-16T06:38:26;8.05;;;5.60;;
20038;SDS011;21737;42.868;25.320;2023-07-16T06:41:30;8.55;;;5.68;;
20038;SDS011;21737;42.868;25.320;2023-07-16T06:44:34;6.78;;;5.20;;
20038;SDS011;21737;42.868;25.320;2023-07-16T06:47:39;6.78;;;5.85;;
20038;SDS011;21737;42.868;25.320;2023-07-16T06:50:42;7.35;;;6.15;;
20038;SDS011;21737;42.868;25.320;2023-07-16T06:53:45;8.18;;;5.35;;
20038;SDS011;21737;42.868;25.320;2023-07-16T06:56:49;9.15;;;5.55;;
20038;SDS011;21737;42.868;25.320;2023-07-16T07:03:19;6.28;;;5.72;;
20038;SDS011;21737;42.868;25.320;2023-07-16T07:06:21;6.68;;;5.88;;
20038;SDS011;21737;42.868;25.320;2023-07-16T07:09:26;7.88;;;5.82;;
20038;SDS011;21737;42.868;25.320;2023-07-16T07:12:30;7.20;;;5.88;;
20038;SDS011;21737;42.868;25.320;2023-07-16T07:15:39;7.07;;;6.05;;
20038;SDS011;21737;42.868;25.320;2023-07-16T07:18:44;8.10;;;6.40;;
20038;SDS011;21737;42.868;25.320;2023-07-16T07:21:46;7.93;;;6.03;;
20038;SDS011;21737;42.868;25.320;2023-07-16T07:24:50;8.95;;;6.10;;
20038;SDS011;21737;42.868;25.320;2023-07-16T07:27:52;8.38;;;6.32;;
20038;SDS011;21737;42.868;25.320;2023-07-16T07:30:56;7.43;;;6.50;;
20038;SDS011;21737;42.868;25.320;2023-07-16T07:33:58;7.13;;;6.22;;
20038;SDS011;21737;42.868;25.320;2023-07-16T07:37:02;6.95;;;5.88;;
20038;SDS011;21737;42.868;25.320;2023-07-16T07:40:05;6.88;;;6.15;;
20038;SDS011;21737;42.868;25.320;2023-07-16T07:43:10;8.50;;;6.28;;
20038;SDS011;21737;42.868;25.320;2023-07-16T07:46:14;10.35;;;6.43;;
20038;SDS011;21737;42.868;25.320;2023-07-16T07:49:17;11.40;;;6.53;;
20038;SDS011;21737;42.868;25.320;2023-07-16T07:52:20;11.45;;;7.00;;
20038;SDS011;21737;42.868;25.320;2023-07-16T07:55:22;9.55;;;7.30;;
20038;SDS011;21737;42.868;25.320;2023-07-16T07:58:25;7.93;;;6.82;;
20038;SDS011;21737;42.868;25.320;2023-07-16T08:01:27;12.45;;;8.25;;
20038;SDS011;21737;42.868;25.320;2023-07-16T08:04:32;7.70;;;6.63;;
20038;SDS011;21737;42.868;25.320;2023-07-16T08:07:35;9.07;;;6.80;;
20038;SDS011;21737;42.868;25.320;2023-07-16T08:10:37;7.70;;;7.00;;
20038;SDS011;21737;42.868;25.320;2023-07-16T08:13:39;9.38;;;7.05;;
20038;SDS011;21737;42.868;25.320;2023-07-16T08:16:41;8.10;;;7.40;;
20038;SDS011;21737;42.868;25.320;2023-07-16T08:19:44;7.95;;;7.00;;
20038;SDS011;21737;42.868;25.320;2023-07-16T08:22:46;7.78;;;7.05;;
20038;SDS011;21737;42.868;25.320;2023-07-16T08:25:49;9.20;;;7.57;;
20038;SDS011;21737;42.868;25.320;2023-07-16T08:28:52;7.93;;;7.07;;
20038;SDS011;21737;42.868;25.320;2023-07-16T08:31:54;8.40;;;7.25;;
20038;SDS011;21737;42.868;25.320;2023-07-16T08:34:58;8.68;;;7.05;;
20038;SDS011;21737;42.868;25.320;2023-07-16T08:38:00;12.85;;;10.20;;
20038;SDS011;21737;42.868;25.320;2023-07-16T08:41:03;7.97;;;7.20;;
20038;SDS011;21737;42.868;25.320;2023-07-16T08:44:07;8.98;;;7.45;;
20038;SDS011;21737;42.868;25.320;2023-07-16T08:47:10;7.68;;;6.97;;
20038;SDS011;21737;42.868;25.320;2023-07-16T08:50:13;8.60;;;6.18;;
20038;SDS011;21737;42.868;25.320;2023-07-16T08:53:18;7.68;;;6.93;;
20038;SDS011;21737;42.868;25.320;2023-07-16T08:56:22;8.82;;;7.10;;
20038;SDS011;21737;42.868;25.320;2023-07-16T08:59:26;7.93;;;6.95;;
20038;SDS011;21737;42.868;25.320;2023-07-16T09:02:30;8.40;;;7.40;;
20038;SDS011;21737;42.868;25.320;2023-07-16T09:05:33;8.05;;;7.35;;
20038;SDS011;21737;42.868;25.320;2023-07-16T09:08:41;7.82;;;7.10;;
20038;SDS011;21737;42.868;25.320;2023-07-16T09:11:49;8.18;;;6.75;;
20038;SDS011;21737;42.868;25.320;2023-07-16T09:14:53;8.65;;;7.85;;
20038;SDS011;21737;42.868;25.320;2023-07-16T09:17:56;8.13;;;7.03;;
20038;SDS011;21737;42.868;25.320;2023-07-16T09:24:35;7.55;;;6.85;;
20038;SDS011;21737;42.868;25.320;2023-07-16T09:27:40;9.13;;;6.85;;
20038;SDS011;21737;42.868;25.320;2023-07-16T09:30:45;7.78;;;7.15;;
20038;SDS011;21737;42.868;25.320;2023-07-16T09:33:50;7.38;;;6.68;;
20038;SDS011;21737;42.868;25.320;2023-07-16T09:36:58;10.15;;;6.80;;
20038;SDS011;21737;42.868;25.320;2023-07-16T09:40:01;9.20;;;6.97;;
20038;SDS011;21737;42.868;25.320;2023-07-16T09:43:07;7.80;;;6.97;;
20038;SDS011;21737;42.868;25.320;2023-07-16T09:46:12;7.88;;;6.57;;
20038;SDS011;21737;42.868;25.320;2023-07-16T09:52:45;8.07;;;7.28;;
20038;SDS011;21737;42.868;25.320;2023-07-16T09:55:50;7.60;;;6.90;;
20038;SDS011;21737;42.868;25.320;2023-07-16T09:58:56;8.13;;;7.18;;
20038;SDS011;21737;42.868;25.320;2023-07-16T10:02:01;8.25;;;7.30;;
20038;SDS011;21737;42.868;25.320;2023-07-16T10:08:33;9.93;;;8.85;;
20038;SDS011;21737;42.868;25.320;2023-07-16T10:11:40;9.32;;;7.68;;
20038;SDS011;21737;42.868;25.320;2023-07-16T10:14:49;8.82;;;7.60;;
20038;SDS011;21737;42.868;25.320;2023-07-16T10:17:52;8.13;;;7.22;;
20038;SDS011;21737;42.868;25.320;2023-07-16T10:21:06;7.82;;;7.10;;
20038;SDS011;21737;42.868;25.320;2023-07-16T10:24:16;9.32;;;8.43;;
20038;SDS011;21737;42.868;25.320;2023-07-16T10:27:28;8.35;;;7.55;;
20038;SDS011;21737;42.868;25.320;2023-07-16T10:34:03;7.80;;;7.10;;
20038;SDS011;21737;42.868;25.320;2023-07-16T10:37:09;8.60;;;7.25;;
20038;SDS011;21737;42.868;25.320;2023-07-16T10:40:15;8.18;;;7.45;;
20038;SDS011;21737;42.868;25.320;2023-07-16T10:43:25;8.95;;;7.40;;
20038;SDS011;21737;42.868;25.320;2023-07-16T10:49:57;8.45;;;7.63;;
20038;SDS011;21737;42.868;25.320;2023-07-16T10:53:01;12.68;;;7.32;;
20038;SDS011;21737;42.868;25.320;2023-07-16T10:56:04;9.13;;;7.45;;
20038;SDS011;21737;42.868;25.320;2023-07-16T10:59:09;7.53;;;6.90;;
20038;SDS011;21737;42.868;25.320;2023-07-16T11:02:12;10.38;;;7.53;;
20038;SDS011;21737;42.868;25.320;2023-07-16T11:05:22;12.20;;;7.60;;
20038;SDS011;21737;42.868;25.320;2023-07-16T11:08:25;8.43;;;7.40;;
20038;SDS011;21737;42.868;25.320;2023-07-16T11:11:28;15.50;;;7.90;;
20038;SDS011;21737;42.868;25.320;2023-07-16T11:14:32;8.52;;;7.30;;
20038;SDS011;21737;42.868;25.320;2023-07-16T11:17:37;8.32;;;7.53;;
20038;SDS011;21737;42.868;25.320;2023-07-16T11:20:41;9.00;;;8.00;;
20038;SDS011;21737;42.868;25.320;2023-07-16T11:23:46;8.32;;;7.50;;
20038;SDS011;21737;42.868;25.320;2023-07-16T11:26:59;8.35;;;7.55;;
20038;SDS011;21737;42.868;25.320;2023-07-16T11:37:07;8.48;;;7.57;;
20038;SDS011;21737;42.868;25.320;2023-07-16T11:40:10;10.68;;;7.68;;
20038;SDS011;21737;42.868;25.320;2023-07-16T11:43:13;11.60;;;7.65;;
20038;SDS011;21737;42.868;25.320;2023-07-16T11:46:17;8.88;;;7.90;;
20038;SDS011;21737;42.868;25.320;2023-07-16T11:49:20;9.25;;;7.47;;
20038;SDS011;21737;42.868;25.320;2023-07-16T11:52:26;9.32;;;7.90;;
20038;SDS011;21737;42.868;25.320;2023-07-16T11:55:33;8.23;;;7.43;;
20038;SDS011;21737;42.868;25.320;2023-07-16T11:58:36;9.15;;;8.05;;
20038;SDS011;21737;42.868;25.320;2023-07-16T12:01:39;11.63;;;7.80;;
20038;SDS011;21737;42.868;25.320;2023-07-16T12:07:52;12.38;;;8.77;;
20038;SDS011;21737;42.868;25.320;2023-07-16T12:11:02;9.55;;;8.27;;
20038;SDS011;21737;42.868;25.320;2023-07-16T12:14:11;9.52;;;8.57;;
20038;SDS011;21737;42.868;25.320;2023-07-16T12:17:16;9.10;;;8.18;;
20038;SDS011;21737;42.868;25.320;2023-07-16T12:20:22;12.35;;;7.95;;
20038;SDS011;21737;42.868;25.320;2023-07-16T12:23:24;9.25;;;7.80;;
20038;SDS011;21737;42.868;25.320;2023-07-16T12:26:31;10.75;;;8.38;;
20038;SDS011;21737;42.868;25.320;2023-07-16T12:29:41;9.40;;;8.50;;
20038;SDS011;21737;42.868;25.320;2023-07-16T12:32:45;10.43;;;8.10;;
20038;SDS011;21737;42.868;25.320;2023-07-16T12:35:50;10.35;;;8.23;;
20038;SDS011;21737;42.868;25.320;2023-07-16T12:38:55;9.65;;;8.35;;
20038;SDS011;21737;42.868;25.320;2023-07-16T12:41:59;8.93;;;8.02;;
20038;SDS011;21737;42.868;25.320;2023-07-16T12:48:30;9.15;;;8.25;;
20038;SDS011;21737;42.868;25.320;2023-07-16T12:51:35;9.43;;;8.52;;
20038;SDS011;21737;42.868;25.320;2023-07-16T12:54:39;8.90;;;8.02;;
20038;SDS011;21737;42.868;25.320;2023-07-16T12:57:43;9.77;;;8.30;;
20038;SDS011;21737;42.868;25.320;2023-07-16T13:00:50;9.88;;;8.65;;
20038;SDS011;21737;42.868;25.320;2023-07-16T13:03:54;9.40;;;8.35;;
20038;SDS011;21737;42.868;25.320;2023-07-16T13:10:46;11.40;;;8.68;;
20038;SDS011;21737;42.868;25.320;2023-07-16T13:13:51;10.05;;;8.38;;
20038;SDS011;21737;42.868;25.320;2023-07-16T13:16:54;11.85;;;9.02;;
20038;SDS011;21737;42.868;25.320;2023-07-16T13:19:57;9.95;;;8.27;;
20038;SDS011;21737;42.868;25.320;2023-07-16T13:23:02;8.93;;;8.10;;
20038;SDS011;21737;42.868;25.320;2023-07-16T13:26:11;10.02;;;8.57;;
20038;SDS011;21737;42.868;25.320;2023-07-16T13:29:20;8.80;;;7.88;;
20038;SDS011;21737;42.868;25.320;2023-07-16T13:32:24;9.10;;;8.30;;
20038;SDS011;21737;42.868;25.320;2023-07-16T13:35:57;12.90;;;8.50;;
20038;SDS011;21737;42.868;25.320;2023-07-16T13:39:07;9.27;;;8.38;;
20038;SDS011;21737;42.868;25.320;2023-07-16T13:42:13;11.38;;;8.82;;
20038;SDS011;21737;42.868;25.320;2023-07-16T13:45:29;9.45;;;8.30;;
20038;SDS011;21737;42.868;25.320;2023-07-16T13:48:33;10.35;;;8.25;;
20038;SDS011;21737;42.868;25.320;2023-07-16T13:51:57;9.27;;;8.35;;
20038;SDS011;21737;42.868;25.320;2023-07-16T13:55:00;9.98;;;8.98;;
20038;SDS011;21737;42.868;25.320;2023-07-16T13:58:04;10.25;;;8.38;;
20038;SDS011;21737;42.868;25.320;2023-07-16T14:01:09;9.70;;;8.70;;
20038;SDS011;21737;42.868;25.320;2023-07-16T14:04:16;9.70;;;8.70;;
20038;SDS011;21737;42.868;25.320;2023-07-16T14:07:21;11.95;;;8.80;;
20038;SDS011;21737;42.868;25.320;2023-07-16T14:10:23;17.02;;;9.18;;
20038;SDS011;21737;42.868;25.320;2023-07-16T14:13:26;12.85;;;8.73;;
20038;SDS011;21737;42.868;25.320;2023-07-16T14:16:29;10.15;;;8.93;;
20038;SDS011;21737;42.868;25.320;2023-07-16T14:19:32;11.73;;;8.98;;
20038;SDS011;21737;42.868;25.320;2023-07-16T14:22:35;10.45;;;9.00;;
20038;SDS011;21737;42.868;25.320;2023-07-16T14:25:38;10.15;;;8.40;;
20038;SDS011;21737;42.868;25.320;2023-07-16T14:28:43;10.05;;;8.45;;
20038;SDS011;21737;42.868;25.320;2023-07-16T14:31:46;10.00;;;8.98;;
20038;SDS011;21737;42.868;25.320;2023-07-16T14:34:52;10.68;;;9.13;;
20038;SDS011;21737;42.868;25.320;2023-07-16T14:37:58;11.77;;;9.15;;
20038;SDS011;21737;42.868;25.320;2023-07-16T14:41:01;10.93;;;8.60;;
20038;SDS011;21737;42.868;25.320;2023-07-16T14:44:10;9.95;;;9.05;;
20038;SDS011;21737;42.868;25.320;2023-07-16T14:47:14;9.80;;;8.57;;
20038;SDS011;21737;42.868;25.320;2023-07-16T14:50:17;11.40;;;8.60;;
20038;SDS011;21737;42.868;25.320;2023-07-16T14:53:29;10.07;;;9.00;;
20038;SDS011;21737;42.868;25.320;2023-07-16T14:56:32;11.35;;;8.95;;
20038;SDS011;21737;42.868;25.320;2023-07-16T15:03:04;13.80;;;8.85;;
20038;SDS011;21737;42.868;25.320;2023-07-16T15:06:08;12.95;;;8.85;;
20038;SDS011;21737;42.868;25.320;2023-07-16T15:09:12;12.38;;;8.90;;
20038;SDS011;21737;42.868;25.320;2023-07-16T15:12:16;10.48;;;9.02;;
20038;SDS011;21737;42.868;25.320;2023-07-16T15:15:19;9.98;;;8.90;;
20038;SDS011;21737;42.868;25.320;2023-07-16T15:18:26;10.15;;;8.93;;
20038;SDS011;21737;42.868;25.320;2023-07-16T15:21:31;10.35;;;9.00;;
20038;SDS011;21737;42.868;25.320;2023-07-16T15:27:48;10.05;;;9.00;;
20038;SDS011;21737;42.868;25.320;2023-07-16T15:30:54;10.70;;;9.15;;
20038;SDS011;21737;42.868;25.320;2023-07-16T15:34:01;10.85;;;8.70;;
20038;SDS011;21737;42.868;25.320;2023-07-16T15:37:03;11.82;;;9.10;;
20038;SDS011;21737;42.868;25.320;2023-07-16T15:40:16;10.18;;;9.13;;
20038;SDS011;21737;42.868;25.320;2023-07-16T15:43:21;13.85;;;9.40;;
20038;SDS011;21737;42.868;25.320;2023-07-16T15:46:23;10.88;;;9.13;;
20038;SDS011;21737;42.868;25.320;2023-07-16T15:52:56;13.63;;;8.95;;
20038;SDS011;21737;42.868;25.320;2023-07-16T15:56:00;13.88;;;8.80;;
20038;SDS011;21737;42.868;25.320;2023-07-16T15:59:07;10.65;;;8.50;;
20038;SDS011;21737;42.868;25.320;2023-07-16T16:02:14;9.52;;;8.63;;
20038;SDS011;21737;42.868;25.320;2023-07-16T16:05:21;10.27;;;9.07;;
20038;SDS011;21737;42.868;25.320;2023-07-16T16:08:25;10.60;;;9.35;;
20038;SDS011;21737;42.868;25.320;2023-07-16T16:11:34;10.20;;;8.93;;
20038;SDS011;21737;42.868;25.320;2023-07-16T16:14:39;10.90;;;8.65;;
20038;SDS011;21737;42.868;25.320;2023-07-16T16:17:43;10.32;;;9.13;;
20038;SDS011;21737;42.868;25.320;2023-07-16T16:20:47;10.20;;;8.80;;
20038;SDS011;21737;42.868;25.320;2023-07-16T16:23:51;12.75;;;9.40;;
20038;SDS011;21737;42.868;25.320;2023-07-16T16:26:54;10.68;;;8.90;;
20038;SDS011;21737;42.868;25.320;2023-07-16T16:29:58;12.15;;;9.60;;
20038;SDS011;21737;42.868;25.320;2023-07-16T16:33:03;10.35;;;9.25;;
20038;SDS011;21737;42.868;25.320;2023-07-16T16:36:11;10.80;;;9.20;;
20038;SDS011;21737;42.868;25.320;2023-07-16T16:39:14;14.05;;;9.50;;
20038;SDS011;21737;42.868;25.320;2023-07-16T16:48:55;12.23;;;8.98;;
20038;SDS011;21737;42.868;25.320;2023-07-16T16:51:59;10.65;;;9.55;;
20038;SDS011;21737;42.868;25.320;2023-07-16T16:55:05;10.32;;;9.00;;
20038;SDS011;21737;42.868;25.320;2023-07-16T16:58:11;15.05;;;10.40;;
20038;SDS011;21737;42.868;25.320;2023-07-16T17:01:19;15.32;;;10.43;;
20038;SDS011;21737;42.868;25.320;2023-07-16T17:04:22;12.98;;;10.52;;
20038;SDS011;21737;42.868;25.320;2023-07-16T17:07:34;14.00;;;10.68;;
20038;SDS011;21737;42.868;25.320;2023-07-16T17:10:37;16.95;;;10.52;;
20038;SDS011;21737;42.868;25.320;2023-07-16T17:13:40;14.27;;;11.75;;
20038;SDS011;21737;42.868;25.320;2023-07-16T17:16:43;13.07;;;11.13;;
20038;SDS011;21737;42.868;25.320;2023-07-16T17:19:47;12.38;;;11.07;;
20038;SDS011;21737;42.868;25.320;2023-07-16T17:22:58;13.60;;;11.15;;
20038;SDS011;21737;42.868;25.320;2023-07-16T17:26:08;13.23;;;11.02;;
20038;SDS011;21737;42.868;25.320;2023-07-16T17:29:12;23.92;;;20.17;;
20038;SDS011;21737;42.868;25.320;2023-07-16T17:32:18;13.45;;;11.38;;
20038;SDS011;21737;42.868;25.320;2023-07-16T17:35:22;15.27;;;11.90;;
20038;SDS011;21737;42.868;25.320;2023-07-16T17:38:24;15.32;;;11.88;;
20038;SDS011;21737;42.868;25.320;2023-07-16T17:41:38;14.63;;;12.73;;
20038;SDS011;21737;42.868;25.320;2023-07-16T17:48:08;12.65;;;11.32;;
20038;SDS011;21737;42.868;25.320;2023-07-16T17:51:11;14.15;;;12.55;;
20038;SDS011;21737;42.868;25.320;2023-07-16T17:54:16;13.60;;;12.15;;
20038;SDS011;21737;42.868;25.320;2023-07-16T18:00:27;15.60;;;12.55;;
20038;SDS011;21737;42.868;25.320;2023-07-16T18:03:34;15.82;;;12.50;;
20038;SDS011;21737;42.868;25.320;2023-07-16T18:10:11;16.50;;;12.75;;
20038;SDS011;21737;42.868;25.320;2023-07-16T18:13:15;14.18;;;12.82;;
20038;SDS011;21737;42.868;25.320;2023-07-16T18:16:18;16.48;;;13.35;;
20038;SDS011;21737;42.868;25.320;2023-07-16T18:19:23;15.60;;;14.02;;
20038;SDS011;21737;42.868;25.320;2023-07-16T18:22:28;16.80;;;13.98;;
20038;SDS011;21737;42.868;25.320;2023-07-16T18:25:35;16.75;;;13.57;;
20038;SDS011;21737;42.868;25.320;2023-07-16T18:28:38;16.60;;;12.73;;
20038;SDS011;21737;42.868;25.320;2023-07-16T18:31:49;15.57;;;13.90;;
20038;SDS011;21737;42.868;25.320;2023-07-16T18:38:31;18.05;;;13.50;;
20038;SDS011;21737;42.868;25.320;2023-07-16T18:41:37;14.52;;;13.10;;
20038;SDS011;21737;42.868;25.320;2023-07-16T18:44:41;14.80;;;13.30;;
20038;SDS011;21737;42.868;25.320;2023-07-16T18:47:45;16.42;;;13.65;;
20038;SDS011;21737;42.868;25.320;2023-07-16T18:50:50;16.27;;;13.98;;
20038;SDS011;21737;42.868;25.320;2023-07-16T18:57:10;18.67;;;14.63;;
20038;SDS011;21737;42.868;25.320;2023-07-16T19:00:16;14.77;;;13.25;;
20038;SDS011;21737;42.868;25.320;2023-07-16T19:03:20;15.90;;;14.20;;
20038;SDS011;21737;42.868;25.320;2023-07-16T19:06:32;16.87;;;13.50;;
20038;SDS011;21737;42.868;25.320;2023-07-16T19:09:37;15.10;;;13.60;;
20038;SDS011;21737;42.868;25.320;2023-07-16T19:12:48;15.57;;;13.50;;
20038;SDS011;21737;42.868;25.320;2023-07-16T19:16:05;16.20;;;13.90;;
20038;SDS011;21737;42.868;25.320;2023-07-16T19:19:07;15.57;;;13.93;;
20038;SDS011;21737;42.868;25.320;2023-07-16T19:22:14;15.63;;;14.03;;
20038;SDS011;21737;42.868;25.320;2023-07-16T19:25:18;15.40;;;12.80;;
20038;SDS011;21737;42.868;25.320;2023-07-16T19:28:21;13.85;;;12.35;;
20038;SDS011;21737;42.868;25.320;2023-07-16T19:41:48;15.13;;;12.77;;
20038;SDS011;21737;42.868;25.320;2023-07-16T19:44:52;14.60;;;13.20;;
20038;SDS011;21737;42.868;25.320;2023-07-16T19:48:01;15.52;;;13.57;;
20038;SDS011;21737;42.868;25.320;2023-07-16T19:54:59;15.87;;;13.07;;
20038;SDS011;21737;42.868;25.320;2023-07-16T19:58:03;17.13;;;12.40;;
20038;SDS011;21737;42.868;25.320;2023-07-16T20:01:06;14.20;;;12.53;;
20038;SDS011;21737;42.868;25.320;2023-07-16T20:04:13;14.00;;;12.60;;
20038;SDS011;21737;42.868;25.320;2023-07-16T20:07:17;14.80;;;13.13;;
20038;SDS011;21737;42.868;25.320;2023-07-16T20:13:28;15.60;;;12.20;;
20038;SDS011;21737;42.868;25.320;2023-07-16T20:16:30;15.00;;;12.50;;
20038;SDS011;21737;42.868;25.320;2023-07-16T20:19:40;16.33;;;13.23;;
20038;SDS011;21737;42.868;25.320;2023-07-16T20:22:44;11.83;;;10.20;;
20038;SDS011;21737;42.868;25.320;2023-07-16T20:25:48;13.70;;;12.20;;
20038;SDS011;21737;42.868;25.320;2023-07-16T20:28:50;11.70;;;10.50;;
20038;SDS011;21737;42.868;25.320;2023-07-16T20:31:53;11.47;;;10.27;;
20038;SDS011;21737;42.868;25.320;2023-07-16T20:34:56;15.13;;;10.90;;
20038;SDS011;21737;42.868;25.320;2023-07-16T20:38:02;12.37;;;9.87;;